CSUN New Campus Station -PST Time - Most Recent Data on bottom of page




           Date/Time      Avg      Avg      Max     Wind      Avg      Max      Min      Avg      Avg    Total      Avg     Batt
                         Wind     Wind     Wind      Dir     Temp     Temp     Temp       RH      Bar     Rain    Solar     Volt
                      Spd MPH      Dir  Spd MPH   at Max    Deg_F    Deg_F    Deg_F        % Press_mb   Inches     W/m2      Min
--------------------------------------------------------------------------------------------------------------------------------
    02/07/2016 00:00      9.4      349     22.0        3     65.6     65.8     65.3       13     1021     0.00        0     13.4
    02/07/2016 00:15      9.2      345     23.8      332     65.6     66.0     65.2       13     1020     0.00        0     13.4
    02/07/2016 00:30      7.9      351     19.6        7     65.5     65.7     65.2       12     1020     0.00        0     13.4
    02/07/2016 00:45      8.9      344     20.6      335     65.8     66.1     65.4       12     1020     0.00        0     13.4
    02/07/2016 01:00      9.5      349     22.9      341     65.8     66.1     65.5       12     1020     0.00        0     13.3
    02/07/2016 01:15      9.5      349     23.1      352     65.9     66.2     65.5       12     1020     0.00        0     13.4
    02/07/2016 01:30      8.6      348     18.6      327     65.6     66.0     65.2       12     1020     0.00        0     13.4
    02/07/2016 01:45      8.7      349     17.2      265     65.8     66.3     65.4       12     1020     0.00        0     13.4
    02/07/2016 02:00      8.3      346     19.1      303     65.9     66.2     65.5       12     1020     0.00        0     13.4
    02/07/2016 02:15      9.8      347     24.3      329     65.7     66.0     65.4       12     1020     0.00        0     13.4
    02/07/2016 02:30      7.7      346     18.6      309     65.7     66.0     65.4       13     1020     0.00        0     13.4
    02/07/2016 02:45      7.4      348     24.2       19     65.6     66.0     65.2       13     1020     0.00        0     13.4
    02/07/2016 03:00      8.2      345     20.0        2     65.7     66.0     65.5       12     1020     0.00        0     13.4
    02/07/2016 03:15      6.5      344     15.6        4     65.5     66.1     65.0       13     1020     0.00        0     13.4
    02/07/2016 03:30      5.2      334     14.9      326     64.9     65.3     64.3       14     1020     0.00        0     13.4
    02/07/2016 03:45      6.1      341     15.4      350     64.5     64.8     64.2       13     1019     0.00        0     13.4
    02/07/2016 04:00      6.7      343     18.9        3     64.7     65.0     64.5       13     1019     0.00        0     13.4
    02/07/2016 04:15      7.0      341     17.1      343     64.7     65.1     64.5       13     1019     0.00        0     13.4
    02/07/2016 04:30      8.2      343     19.1      338     65.2     65.5     64.8       12     1019     0.00        0     13.4
    02/07/2016 04:45      8.6      348     22.6      340     65.1     65.4     64.8       12     1019     0.00        0     13.4
    02/07/2016 05:00      9.3      354     19.3       43     64.9     65.3     64.6       12     1019     0.00        0     13.4
    02/07/2016 05:15      8.7      350     19.9      350     65.3     65.7     64.9       12     1019     0.00        0     13.4
    02/07/2016 05:30      9.3      351     23.8      348     65.6     65.8     65.3       12     1019     0.00        0     13.4
    02/07/2016 05:45      8.3      348     18.1      345     65.8     66.0     65.5       12     1019     0.00        0     13.4
    02/07/2016 06:00      8.5      345     18.1        9     65.9     66.3     65.6       12     1019     0.00        0     13.4
    02/07/2016 06:15      6.9      344     16.7        5     66.1     66.3     65.8       12     1019     0.00        0     13.4
    02/07/2016 06:30      9.4      349     21.9      338     66.4     66.8     66.0       12     1019     0.00        0     13.4
    02/07/2016 06:45      8.5      346     18.2      313     66.2     66.5     66.0       12     1019     0.00        1     13.4
    02/07/2016 07:00     10.0      345     23.7      333     66.3     66.6     66.1       12     1019     0.00        6     13.4
    02/07/2016 07:15      9.6      345     22.8      337     66.3     66.5     66.0       12     1019     0.00       13     13.4
    02/07/2016 07:30     11.3      346     25.8        0     66.6     67.0     66.2       12     1019     0.00       74     13.3
    02/07/2016 07:45      9.8      346     22.4      346     67.1     67.3     66.9       13     1020     0.00      128     13.3
    02/07/2016 08:00      9.9      346     22.8      338     67.5     68.1     66.9       12     1020     0.00      173     13.3
    02/07/2016 08:15      9.3      347     20.2      334     68.6     69.1     68.0       12     1020     0.00      172     13.3
    02/07/2016 08:30     10.0      345     20.1      312     69.4     69.8     69.0       12     1020     0.00       71     13.3
    02/07/2016 08:45      8.8      350     20.9       12     70.6     71.0     69.7       11     1020     0.00       46     13.3
    02/07/2016 09:00      8.3      350     20.3       11     71.2     71.8     70.7       11     1020     0.00       54     13.3
    02/07/2016 09:15      9.2      351     18.9      355     72.1     72.7     71.6       11     1020     0.00      309     13.3
    02/07/2016 09:30     10.6      352     22.1      346     73.4     74.1     72.7       11     1020     0.00      443     13.2
    02/07/2016 09:45      9.9      355     20.7      322     74.5     75.2     73.8       10     1020     0.00      482     13.2
    02/07/2016 10:00     10.0      347     22.1      346     75.6     76.1     75.0       10     1020     0.00      518     13.2
    02/07/2016 10:15      8.4      350     19.3        4     76.7     77.3     75.8       10     1020     0.00      551     13.2
    02/07/2016 10:30      8.2      348     19.3       -0     77.6     78.4     77.1        9     1020     0.00      580     13.2
    02/07/2016 10:45     10.9      358     22.8      346     78.8     79.2     78.3        8     1020     0.00      605     13.1
    02/07/2016 11:00     11.0        2     26.1        0     79.0     79.2     78.7        8     1020     0.00      627     13.1
    02/07/2016 11:15     10.7        3     23.3       11     79.4     80.0     78.7        8     1020     0.00      646     13.1
    02/07/2016 11:30      9.6      359     23.4        0     79.9     80.3     79.6        8     1020     0.00      660     13.1
    02/07/2016 11:45      9.7      355     21.8      323     80.2     80.6     79.8        8     1020     0.00      671     13.1
    02/07/2016 12:00      8.2      357     17.6        3     80.6     81.0     80.1        8     1019     0.00      678     13.1
    02/07/2016 12:15     10.2      360     19.8      347     80.4     80.9     80.1        8     1019     0.00      680     13.1
    02/07/2016 12:30      9.1      360     18.2      291     80.6     81.0     80.1        9     1019     0.00      678     13.1
    02/07/2016 12:45      9.6      353     18.8      344     80.8     81.1     80.4        7     1019     0.00      672     13.1
    02/07/2016 13:00     10.3      359     21.0       17     80.9     81.2     80.5        7     1019     0.00      663     13.1
    02/07/2016 13:15      9.9      356     21.3       13     81.1     81.5     80.8        6     1019     0.00      650     13.1
    02/07/2016 13:30     10.5      358     22.3      355     81.2     81.4     80.9        6     1018     0.00      632     13.1
    02/07/2016 13:45     10.9      355     23.3      350     81.1     81.6     80.5        6     1018     0.00      610     13.1
    02/07/2016 14:00      9.4        0     18.3        8     81.1     81.5     80.6        6     1018     0.00      585     13.1
    02/07/2016 14:15      9.2        1     19.6       20     81.3     81.6     81.0        6     1018     0.00      557     13.1
    02/07/2016 14:30      9.9        7     19.6      354     81.3     81.8     81.0        6     1018     0.00      526     13.1
    02/07/2016 14:45      8.6        6     18.3      338     81.6     82.1     81.3        6     1018     0.00      491     13.1
    02/07/2016 15:00      9.6        4     18.4        0     81.7     82.1     81.5        6     1018     0.00      452     13.1
    02/07/2016 15:15      9.2        2     19.3      348     81.7     82.0     81.3        7     1018     0.00      411     13.1
    02/07/2016 15:30      9.1        4     21.8       13     81.4     81.8     80.7        7     1018     0.00      368     13.1
    02/07/2016 15:45      9.6        8     23.6      343     80.5     80.9     80.0        8     1018     0.00      322     13.1
    02/07/2016 16:00     10.0        3     21.8      340     80.0     80.4     79.8        8     1018     0.00      275     13.1
    02/07/2016 16:15      9.6        8     19.6       16     79.7     80.1     79.2        8     1018     0.00      213     13.1
    02/07/2016 16:30      8.6        9     20.5      338     79.0     79.3     78.4        8     1018     0.00       31     13.1
    02/07/2016 16:45      6.2        6     13.5       10     78.4     78.7     78.2        8     1019     0.00       32     13.2
    02/07/2016 17:00      7.3      359     16.6      346     78.0     78.4     77.7        8     1019     0.00       32     13.2
    02/07/2016 17:15      5.7        4     11.9      353     77.5     77.9     77.2        8     1019     0.00       31     13.2
    02/07/2016 17:30      8.4        2     16.1      339     76.7     77.2     76.2        8     1019     0.00        9     13.2
    02/07/2016 17:45      8.5        0     16.5      355     76.1     76.4     75.6        8     1019     0.00        2     13.2
    02/07/2016 18:00      9.1        2     17.6      354     75.7     75.9     75.4        9     1019     0.00        0     13.2
    02/07/2016 18:15      8.0        5     20.1        6     75.5     75.8     75.3        8     1019     0.00        0     13.2
    02/07/2016 18:30      8.4        4     20.8        9     75.4     75.8     75.2        8     1019     0.00        0     13.2
    02/07/2016 18:45      7.9        2     17.2      352     75.1     75.4     74.7        8     1019     0.00        0     13.2
    02/07/2016 19:00      7.3      355     17.8        5     74.8     75.0     74.4        9     1019     0.00        0     13.2
    02/07/2016 19:15      7.2      353     16.1       22     73.8     74.6     73.3       10     1019     0.00        0     13.3
    02/07/2016 19:30      7.1      346     16.6      335     73.2     73.5     72.8       10     1019     0.00        0     13.3
    02/07/2016 19:45      6.6      347     13.4      348     72.7     73.0     72.4       10     1019     0.00        0     13.3
    02/07/2016 20:00      6.7      349     13.7      343     72.4     72.7     72.2       10     1019     0.00        0     13.3
    02/07/2016 20:15      5.0      347     12.8      340     72.1     72.4     71.8       10     1019     0.00        0     13.3
    02/07/2016 20:30      5.4      344     11.6      352     72.2     72.5     71.9        9     1019     0.00        0     13.3
    02/07/2016 20:45      5.1      358     13.3       38     72.8     73.9     72.2        8     1020     0.00        0     13.3
    02/07/2016 21:00      5.3      348     12.0       19     73.6     74.0     73.1        9     1020     0.00        0     13.3
    02/07/2016 21:15      5.4      344     12.7      354     72.5     73.1     72.2        9     1020     0.00        0     13.3
    02/07/2016 21:30      5.6      353     11.8        0     72.9     73.6     72.3        9     1020     0.00        0     13.3
    02/07/2016 21:45      5.5      355     12.4        2     73.9     74.1     73.6       10     1020     0.00        0     13.3
    02/07/2016 22:00      4.8      353     11.4      325     73.8     74.3     73.3       10     1020     0.00        0     13.3
    02/07/2016 22:15      4.6      359     10.7        0     73.6     73.9     73.3       10     1020     0.00        0     13.3
    02/07/2016 22:30      4.8      346     11.9      350     73.4     73.9     73.0       11     1020     0.00        0     13.3
    02/07/2016 22:45      5.5      351     12.6      353     73.5     73.8     73.1       11     1020     0.00        0     13.3
    02/07/2016 23:00      5.2      349     12.3      352     73.5     73.8     73.2       12     1020     0.00        0     13.3
    02/07/2016 23:15      6.9      344     15.1      350     72.9     73.3     72.6       12     1020     0.00        0     13.3
    02/07/2016 23:30      6.3      351     16.9      342     72.7     72.9     72.3       12     1020     0.00        0     13.3
    02/07/2016 23:45      5.1      351     12.8      331     72.2     72.7     71.9       12     1020     0.00        0     13.3
    02/08/2016 00:00      5.1      344     14.0      354     72.2     72.5     72.1       12     1020     0.00        0     13.3
    02/08/2016 00:15      4.8      346     12.8      336     72.2     72.5     71.9       12     1020     0.00        0     13.3
    02/08/2016 00:30      4.4      347     10.2      344     72.2     72.5     71.9       12     1020     0.00        0     13.3
    02/08/2016 00:45      4.5      339     12.2      337     72.3     72.9     71.7       12     1020     0.00        0     13.3
    02/08/2016 01:00      4.4      338      8.8      311     71.8     72.1     71.4       12     1020     0.00        0     13.3
    02/08/2016 01:15      5.1      339     12.7      283     71.4     71.7     71.0       12     1020     0.00        0     13.3
    02/08/2016 01:30      5.2      343     12.3      305     71.2     71.5     71.0       12     1020     0.00        0     13.3
    02/08/2016 01:45      4.2      339      9.4      332     71.0     71.3     70.6       13     1020     0.00        0     13.3
    02/08/2016 02:00      5.1      343     13.4      343     70.9     71.3     70.5       12     1020     0.00        0     13.3
    02/08/2016 02:15      4.6      345     11.8      324     71.0     71.2     70.7       12     1020     0.00        0     13.3
    02/08/2016 02:30      5.1      348     13.5        0     71.4     72.0     70.8       12     1020     0.00        0     13.3
    02/08/2016 02:45      6.4      349     13.5      352     72.0     72.2     71.8       12     1020     0.00        0     13.3
    02/08/2016 03:00      6.6      346     16.8        6     71.3     72.0     70.8       12     1020     0.00        0     13.3
    02/08/2016 03:15      7.3      349     14.3      323     70.9     71.2     70.7       12     1020     0.00        0     13.3
    02/08/2016 03:30      6.5      353     13.7      337     70.7     71.0     70.4       12     1019     0.00        0     13.3
    02/08/2016 03:45      5.4      348     13.9      345     70.7     71.0     70.3       12     1019     0.00        0     13.3
    02/08/2016 04:00      5.3      348     16.2      338     71.2     71.8     70.5       12     1019     0.00        0     13.3
    02/08/2016 04:15      6.3      346     15.0      354     70.8     71.3     70.4       12     1019     0.00        0     13.3
    02/08/2016 04:30      6.9      344     16.0      323     70.9     71.2     70.7       12     1019     0.00        0     13.3
    02/08/2016 04:45      6.6      346     20.1      343     70.5     70.9     70.1       12     1019     0.00        0     13.3
    02/08/2016 05:00      6.3      347     14.1      346     70.4     70.7     70.2       12     1019     0.00        0     13.3
    02/08/2016 05:15      6.5      345     16.7      352     70.3     70.6     70.1       12     1019     0.00        0     13.3
    02/08/2016 05:30      7.8      346     16.9      335     70.3     70.6     70.1       12     1020     0.00        0     13.3
    02/08/2016 05:45      8.4      347     18.9      340     70.3     70.5     70.1       12     1020     0.00        0     13.3
    02/08/2016 06:00      8.2      349     17.1       10     70.3     70.5     70.0       12     1019     0.00        0     13.3
    02/08/2016 06:15      8.9      348     17.7      353     70.3     70.7     70.1       12     1020     0.00        0     13.3
    02/08/2016 06:30     10.4      351     23.9      344     70.2     70.4     69.9       13     1020     0.00        0     13.3
    02/08/2016 06:45      8.3      352     17.2      354     69.9     70.3     69.7       12     1020     0.00        2     13.3
    02/08/2016 07:00      9.2      351     19.8      342     70.1     70.3     69.9       13     1020     0.00        7     13.3
    02/08/2016 07:15     10.6      351     20.3      353     70.2     70.7     69.9       12     1020     0.00       13     13.3
    02/08/2016 07:30      9.4      351     18.5       10     70.4     70.8     70.1       12     1020     0.00       70     13.3
    02/08/2016 07:45      8.5      351     17.4        6     70.9     71.4     70.5       12     1020     0.00      130     13.3
    02/08/2016 08:00      8.0      351     19.0      334     71.8     72.2     71.3       12     1020     0.00      175     13.3
    02/08/2016 08:15      8.7      350     16.9      342     72.5     72.9     72.0       12     1020     0.00      177     13.3
    02/08/2016 08:30      8.7      351     19.4      341     73.1     73.4     72.7       12     1020     0.00       70     13.2
    02/08/2016 08:45      8.7      349     18.0      335     73.6     74.0     73.2       11     1020     0.00       47     13.2
    02/08/2016 09:00      6.5      344     16.4      336     74.3     74.8     73.8       11     1021     0.00       58     13.3
    02/08/2016 09:15      7.2      346     16.0       12     75.4     76.3     74.8       10     1021     0.00      318     13.3
    02/08/2016 09:30      6.1      348     14.2      355     76.7     77.6     76.0       10     1021     0.00      446     13.2
    02/08/2016 09:45      7.3      349     21.5      342     77.9     78.5     77.4        9     1021     0.00      485     13.2
    02/08/2016 10:00      6.4      338     14.0      338     78.1     78.4     77.6       10     1021     0.00      521     13.2
    02/08/2016 10:15      7.5      344     18.7      354     78.2     78.7     78.0       10     1021     0.00      553     13.1
    02/08/2016 10:30      8.1      343     20.6        4     78.5     78.9     78.2       10     1021     0.00      583     13.1
    02/08/2016 10:45      7.8      347     17.6      355     78.8     79.3     78.4       10     1021     0.00      608     13.1
    02/08/2016 11:00      8.7      350     20.4       16     79.2     79.6     78.8       10     1021     0.00      631     13.1
    02/08/2016 11:15      7.3      343     18.3        9     80.0     80.6     79.5        9     1020     0.00      650     13.1
    02/08/2016 11:30      7.1      347     18.4      344     80.6     81.3     80.0        9     1020     0.00      665     13.1
    02/08/2016 11:45      8.0      339     17.5        2     80.5     80.9     80.2        9     1020     0.00      675     13.1
    02/08/2016 12:00      7.1      341     19.5      341     80.7     81.1     80.3        9     1020     0.00      682     13.1
    02/08/2016 12:15      7.0      340     19.2      328     80.7     81.0     80.2       10     1020     0.00      684     13.1
    02/08/2016 12:30      7.2      346     15.7       36     81.3     81.8     80.9        9     1019     0.00      684     13.1
    02/08/2016 12:45      7.8      343     16.8      352     81.5     82.0     81.1        9     1019     0.00      678     13.1
    02/08/2016 13:00      7.2      341     15.4      341     81.5     82.1     81.1        9     1019     0.00      668     13.1
    02/08/2016 13:15      7.6      342     18.4      346     81.4     81.8     80.9        9     1019     0.00      653     13.1
    02/08/2016 13:30      7.6      341     16.8      355     81.4     82.0     81.0        9     1019     0.00      635     13.1
    02/08/2016 13:45      6.9      348     16.9      348     81.7     82.4     81.0        9     1019     0.00      613     13.1
    02/08/2016 14:00      9.3      346     18.2      341     81.7     82.0     81.3        9     1019     0.00      587     13.1
    02/08/2016 14:15      8.3      343     17.5      347     81.7     82.1     81.3        9     1019     0.00      558     13.1
    02/08/2016 14:30      6.7      343     16.8      350     81.9     82.4     81.6        9     1019     0.00      526     13.0
    02/08/2016 14:45      7.4      340     17.1      329     82.0     82.6     81.5        9     1019     0.00      490     13.0
    02/08/2016 15:00      7.9      338     18.5      317     81.6     81.9     81.2        9     1018     0.00      452     13.0
    02/08/2016 15:15      6.6      343     16.6      314     81.7     82.1     81.4        9     1018     0.00      412     13.0
    02/08/2016 15:30      8.0      347     22.1        6     81.6     82.1     81.2        9     1018     0.00      369     13.0
    02/08/2016 15:45      8.4      351     21.9      343     81.2     81.7     80.6        8     1018     0.00      324     13.1
    02/08/2016 16:00      7.2      353     17.2      331     80.9     81.2     80.7        8     1019     0.00      278     13.1
    02/08/2016 16:15      7.2      350     15.5      343     80.4     81.0     79.9        8     1019     0.00      219     13.1
    02/08/2016 16:30      6.0      346     15.9        0     79.6     80.1     79.0        9     1018     0.00       34     13.1
    02/08/2016 16:45      7.8      343     18.1      354     78.9     79.2     78.5        8     1018     0.00       36     13.1
    02/08/2016 17:00      5.6      342     11.9      323     78.5     78.8     78.1        9     1018     0.00       34     13.2
    02/08/2016 17:15      6.4      346     14.5       11     77.9     78.3     77.6        9     1018     0.00       29     13.2
    02/08/2016 17:30      6.7      348     13.6      346     77.4     77.8     77.0        8     1018     0.00       10     13.2
    02/08/2016 17:45      5.2      349     11.4      346     77.0     77.2     76.7        8     1019     0.00        3     13.2
    02/08/2016 18:00      6.0      348     12.4       20     76.5     76.9     76.2        9     1019     0.00        0     13.2
    02/08/2016 18:15      4.1      343      8.8       12     76.0     76.3     75.6        9     1019     0.00        0     13.2
    02/08/2016 18:30      4.9      351     11.1       14     75.8     76.2     75.6        9     1019     0.00        0     13.2
    02/08/2016 18:45      4.8      350     13.8      351     75.7     76.0     75.4        9     1019     0.00        0     13.2
    02/08/2016 19:00      6.3      347     13.9        2     75.6     76.0     75.3        9     1019     0.00        0     13.3
    02/08/2016 19:15      6.1      349     14.9      349     75.5     75.8     75.2       10     1019     0.00        0     13.2
    02/08/2016 19:30      6.1      347     14.3      344     75.3     75.5     75.0       10     1019     0.00        0     13.3
    02/08/2016 19:45      5.5      344     13.2      352     74.9     75.3     74.5       10     1019     0.00        0     13.3
    02/08/2016 20:00      6.3      345     14.4        3     74.5     74.8     74.2       10     1019     0.00        0     13.3
    02/08/2016 20:15      6.0      344     13.7        0     74.3     74.6     74.1       10     1019     0.00        0     13.3
    02/08/2016 20:30      5.2      337     14.1      336     74.2     74.5     73.9       10     1019     0.00        0     13.3
    02/08/2016 20:45      5.0      344     13.8      344     73.8     74.1     73.3       10     1019     0.00        0     13.3
    02/08/2016 21:00      5.5      351     11.2       12     73.9     74.2     73.6       10     1019     0.00        0     13.3
    02/08/2016 21:15      6.2      348     13.8      340     74.1     74.4     73.8       10     1020     0.00        0     13.3
    02/08/2016 21:30      5.3      347     12.1      352     74.2     74.5     73.9       10     1020     0.00        0     13.3
    02/08/2016 21:45      4.4      351     12.5      352     74.0     74.4     73.5       10     1020     0.00        0     13.3
    02/08/2016 22:00      3.1      347      9.3      354     73.6     73.9     73.2       11     1020     0.00        0     13.3
    02/08/2016 22:15      2.3      343      6.7      325     73.3     73.6     72.5       11     1020     0.00        0     13.3
    02/08/2016 22:30      2.2      340      6.6       15     71.9     72.8     71.1       11     1020     0.00        0     13.3
    02/08/2016 22:45      2.2      339      8.2      352     73.2     73.7     71.9       11     1020     0.00        0     13.3
    02/08/2016 23:00      2.8      344      7.3      340     72.8     73.4     72.3       11     1020     0.00        0     13.3
    02/08/2016 23:15      4.3      355     11.0        7     73.6     74.3     72.9       10     1020     0.00        0     13.3
    02/08/2016 23:30      4.1      354      8.9      338     74.3     74.6     73.8       11     1019     0.00        0     13.3
    02/08/2016 23:45      4.1      357     11.0        8     74.1     74.5     73.7       11     1020     0.00        0     13.3
    02/09/2016 00:00      3.3        1      6.5      347     73.9     74.5     73.6       11     1020     0.00        0     13.3
    02/09/2016 00:15      3.3       14     10.3        2     73.6     74.0     73.2       11     1020     0.00        0     13.3
    02/09/2016 00:30      3.9        4      7.9        0     74.0     74.3     73.5       12     1020     0.00        0     13.3
    02/09/2016 00:45      4.3        3      8.9      350     73.8     74.1     73.6       12     1020     0.00        0     13.3
    02/09/2016 01:00      2.7      357      7.1      333     73.2     73.8     72.8       12     1019     0.00        0     13.3
    02/09/2016 01:15      2.0       21      6.4        0     72.6     73.2     72.2       12     1019     0.00        0     13.3
    02/09/2016 01:30      2.5        1      8.3      350     72.6     72.9     72.4       12     1019     0.00        0     13.3
    02/09/2016 01:45      2.1      356      6.3        7     72.8     73.3     72.4       12     1019     0.00        0     13.3
    02/09/2016 02:00      1.9      351      6.6      329     72.1     72.9     71.7       12     1019     0.00        0     13.3
    02/09/2016 02:15      0.5      149      2.5      344     67.8     72.3     63.6       22     1019     0.00        0     13.3
    02/09/2016 02:30      0.7      106      3.4       87     63.7     64.1     63.3       20     1019     0.00        0     13.3
    02/09/2016 02:45      1.1      356      5.0      323     64.0     65.5     63.5       16     1019     0.00        0     13.4
    02/09/2016 03:00      4.3        1     11.1      346     69.1     71.8     65.4       13     1019     0.00        0     13.4
    02/09/2016 03:15      3.4      352     11.7      352     71.6     72.3     70.9       13     1019     0.00        0     13.4
    02/09/2016 03:30      4.7      355     12.5      349     71.9     72.6     71.2       12     1019     0.00        0     13.4
    02/09/2016 03:45      2.3      332      8.0      340     71.8     72.5     69.8       14     1019     0.00        0     13.3
    02/09/2016 04:00      0.6      141      2.2      165     67.4     69.8     65.5       18     1019     0.00        0     13.3
    02/09/2016 04:15      0.5        4      4.8      338     64.4     65.6     63.4       20     1019     0.00        0     13.4
    02/09/2016 04:30      2.4      349     10.4      343     66.5     70.4     63.6       13     1019     0.00        0     13.4
    02/09/2016 04:45      2.7      333      9.9        8     69.9     71.8     65.4       19     1019     0.00        0     13.4
    02/09/2016 05:00      1.0      108      4.9      350     63.3     65.2     62.1       21     1019     0.00        0     13.4
    02/09/2016 05:15      2.6      353      9.1      354     66.9     70.2     62.7       15     1019     0.00        0     13.4
    02/09/2016 05:30      1.1      144      3.3      137     64.6     69.5     63.4       21     1019     0.00        0     13.4
    02/09/2016 05:45      0.7      116      3.2      143     61.2     63.7     59.2       26     1019     0.00        0     13.4
    02/09/2016 06:00      0.1      171      1.8      257     58.9     59.5     58.5       27     1020     0.00        0     13.4
    02/09/2016 06:15      0.6      208      2.5      186     58.4     59.3     57.9       28     1020     0.00        0     13.4
    02/09/2016 06:30      1.2      252      4.7      243     59.7     60.6     58.9       25     1020     0.00        0     13.4
    02/09/2016 06:45      0.5      229      3.3      216     60.5     61.8     59.4       26     1020     0.00        2     13.4
    02/09/2016 07:00      0.0      294      1.6      285     59.0     59.6     58.1       26     1020     0.00        7     13.4
    02/09/2016 07:15      1.0      301      3.7      290     59.1     60.5     58.2       25     1020     0.00       15     13.4
    02/09/2016 07:30      0.7      247      3.4      340     60.5     60.9     60.1       26     1020     0.00       68     13.4
    02/09/2016 07:45      0.3      158      2.9      180     62.7     63.7     60.9       25     1021     0.00      137     13.4
    02/09/2016 08:00      0.5      245      4.8      272     64.6     66.1     63.6       24     1021     0.00      183     13.4
    02/09/2016 08:15      0.3      245      2.4      241     67.2     68.0     66.1       19     1021     0.00      193     13.3
    02/09/2016 08:30      0.5      244      2.3      309     67.9     68.5     67.7       23     1021     0.00       64     13.3
    02/09/2016 08:45      3.6      314     12.2      327     71.8     73.7     68.4       13     1021     0.00       52     13.3
    02/09/2016 09:00      2.7      305     10.7      339     74.3     74.9     73.5       14     1021     0.00       67     13.3
    02/09/2016 09:15      2.6      256      5.4      245     74.5     75.2     74.2       14     1021     0.00      342     13.3
    02/09/2016 09:30      1.9      286      7.0      310     76.3     77.2     75.2       14     1021     0.00      459     13.2
    02/09/2016 09:45      3.4      307     10.3      349     77.8     78.7     77.0       12     1021     0.00      499     13.2
    02/09/2016 10:00      4.0      327     12.0      321     78.5     79.7     78.0       12     1021     0.00      536     13.2
    02/09/2016 10:15      3.5      337      8.7        6     80.1     80.6     79.5       11     1021     0.00      570     13.1
    02/09/2016 10:30      5.0      333     13.1       29     80.3     81.1     79.7       12     1021     0.00      599     13.1
    02/09/2016 10:45      4.7      334     12.8      352     81.1     81.5     80.6       10     1021     0.00      625     13.1
    02/09/2016 11:00      3.8      328     10.7      349     82.1     82.6     81.4       11     1021     0.00      648     13.1
    02/09/2016 11:15      4.9      330     13.6      345     82.6     82.9     82.1       10     1020     0.00      667     13.1
    02/09/2016 11:30      4.6      329     12.9      347     83.1     83.8     82.4       10     1020     0.00      681     13.1
    02/09/2016 11:45      5.3      335     13.1      331     83.4     83.8     83.1       10     1020     0.00      692     13.1
    02/09/2016 12:00      4.3      328     11.1      331     83.9     84.6     83.2        9     1020     0.00      699     13.1
    02/09/2016 12:15      5.4      339     13.6      330     84.5     85.1     83.9        9     1019     0.00      702     13.1
    02/09/2016 12:30      5.5      338     12.3      351     84.7     85.4     84.3        9     1019     0.00      701     13.0
    02/09/2016 12:45      5.2      320     12.4      330     84.7     85.2     84.1       10     1019     0.00      695     13.0
    02/09/2016 13:00      6.3      332     14.9      326     84.7     85.0     84.1        9     1018     0.00      684     13.0
    02/09/2016 13:15      5.8      324     12.0      306     84.8     85.4     84.3       10     1018     0.00      669     13.0
    02/09/2016 13:30      5.1      322     12.6      352     84.8     85.4     84.3       10     1018     0.00      650     13.0
    02/09/2016 13:45      6.6      338     17.1      337     85.3     85.7     84.9       10     1018     0.00      629     13.0
    02/09/2016 14:00      6.0      333     12.7      331     85.3     85.7     85.0       10     1017     0.00      603     13.0
    02/09/2016 14:15      7.2      337     18.3      349     85.3     85.6     84.7       10     1017     0.00      572     13.0
    02/09/2016 14:30      7.3      332     18.0      341     84.8     85.3     84.4       10     1017     0.00      540     13.0
    02/09/2016 14:45      6.7      337     17.1      331     84.8     85.3     84.3       10     1018     0.00      504     13.0
    02/09/2016 15:00      7.3      335     16.8      329     84.6     85.0     84.0       10     1018     0.00      464     13.0
    02/09/2016 15:15      7.4      322     19.7      335     83.9     84.2     83.5       10     1018     0.00      424     13.0
    02/09/2016 15:30      7.7      331     23.0      336     84.0     84.3     83.6       10     1018     0.00      381     13.0
    02/09/2016 15:45      5.9      335     15.2      336     84.2     84.5     83.9       10     1018     0.00      336     13.0
    02/09/2016 16:00      6.5      333     17.3      353     84.0     84.6     83.8       10     1018     0.00      286     13.0
    02/09/2016 16:15      7.3      334     16.5      337     83.4     83.9     83.0       10     1018     0.00      225     13.0
    02/09/2016 16:30      5.7      339     13.4      347     83.0     83.3     82.7       10     1018     0.00       39     13.1
    02/09/2016 16:45      5.8      343     17.3      346     82.4     82.9     82.0       10     1018     0.00       35     13.1
    02/09/2016 17:00      5.2      339     12.8      355     81.5     82.1     81.1       10     1018     0.00       21     13.1
    02/09/2016 17:15      5.2      341     11.9      320     80.9     81.2     80.4       10     1018     0.00       21     13.2
    02/09/2016 17:30      5.3      338     13.0      344     80.3     80.8     79.7       10     1018     0.00        9     13.2
    02/09/2016 17:45      5.9      336     17.9      327     79.4     79.9     79.0       10     1018     0.00        2     13.2
    02/09/2016 18:00      5.6      344     13.9      324     78.8     79.3     78.4       10     1017     0.00        0     13.2
    02/09/2016 18:15      4.7      349     11.1      349     78.3     78.7     77.8       11     1017     0.00        0     13.2
    02/09/2016 18:30      4.1      341      9.3        3     77.6     78.0     77.2       11     1018     0.00        0     13.2
    02/09/2016 18:45      3.5      343      8.9      346     76.9     77.3     76.4       11     1018     0.00        0     13.2
    02/09/2016 19:00      4.0      343      8.3      329     76.4     76.7     76.2       12     1018     0.00        0     13.2
    02/09/2016 19:15      3.2      339      9.9      339     76.1     76.3     75.8       12     1018     0.00        0     13.2
    02/09/2016 19:30      1.6      281      5.0      303     75.1     76.2     74.0       13     1018     0.00        0     13.3
    02/09/2016 19:45      1.2      223      5.3      181     73.3     74.2     72.4       14     1019     0.00        0     13.3
    02/09/2016 20:00      0.4      279      3.3      339     72.2     73.0     71.6       15     1019     0.00        0     13.3
    02/09/2016 20:15      0.8      246      3.2      291     70.8     71.8     70.2       15     1019     0.00        0     13.3
    02/09/2016 20:30      1.8      305      9.1        3     72.0     73.3     70.5       12     1019     0.00        0     13.3
    02/09/2016 20:45      2.7      317     10.3      310     74.7     75.5     73.4       12     1019     0.00        0     13.3
    02/09/2016 21:00      1.6      203      6.4      354     72.9     74.3     70.6       15     1019     0.00        0     13.3
    02/09/2016 21:15      0.5      132      3.3      173     69.5     70.8     68.6       17     1019     0.00        0     13.3
    02/09/2016 21:30      1.5       10      7.5       14     69.7     70.6     68.5       16     1019     0.00        0     13.3
    02/09/2016 21:45      1.7      143      4.6      140     68.2     70.4     67.3       18     1019     0.00        0     13.3
    02/09/2016 22:00      1.7      183      3.7      205     66.5     67.4     65.8       22     1019     0.00        0     13.3
    02/09/2016 22:15      1.0      163      2.5      175     65.9     66.5     65.3       23     1019     0.00        0     13.3
    02/09/2016 22:30      0.0      217      0.9      214     64.3     65.4     63.7       25     1019     0.00        0     13.3
    02/09/2016 22:45      0.4      327      2.2      291     63.7     64.1     63.2       24     1019     0.00        0     13.4
    02/09/2016 23:00      1.1      323      5.4      312     63.7     65.4     63.2       17     1019     0.00        0     13.4
    02/09/2016 23:15      0.9      300      4.3      314     66.8     67.7     65.3       17     1019     0.00        0     13.4
    02/09/2016 23:30      0.6      249      3.2        9     66.1     67.1     65.5       18     1019     0.00        0     13.4
    02/09/2016 23:45      0.9      168      3.0      174     64.4     66.2     62.9       26     1019     0.00        0     13.4
    02/10/2016 00:00      0.4      244      2.6      157     62.1     63.0     61.3       27     1019     0.00        0     13.4
    02/10/2016 00:15      1.0      194      4.4      176     61.9     63.0     61.3       25     1019     0.00        0     13.4
    02/10/2016 00:30      0.3      162      2.2      343     62.3     62.9     61.8       28     1019     0.00        0     13.4
    02/10/2016 00:45      0.1      157      1.6      199     61.3     61.9     60.8       27     1019     0.00        0     13.4
    02/10/2016 01:00      0.6      236      4.5      214     61.3     62.0     60.8       25     1020     0.00        0     13.4
    02/10/2016 01:15      0.8      233      3.6      218     62.6     63.4     62.0       24     1020     0.00        0     13.4
    02/10/2016 01:30      0.3      183      2.7      185     61.8     62.3     61.2       26     1019     0.00        0     13.4
    02/10/2016 01:45      0.0      302      0.9      298     60.0     61.4     59.3       28     1019     0.00        0     13.4
    02/10/2016 02:00      0.5      275      2.5      280     59.2     59.5     58.7       27     1019     0.00        0     13.4
    02/10/2016 02:15      0.5      271      2.9      256     59.4     59.9     58.7       27     1019     0.00        0     13.4
    02/10/2016 02:30      0.5      283      3.6      268     59.2     59.7     58.5       26     1019     0.00        0     13.5
    02/10/2016 02:45      0.0      285      1.4      308     58.4     59.6     57.5       30     1019     0.00        0     13.5
    02/10/2016 03:00      0.0      265      1.2      260     56.5     57.8     55.8       33     1019     0.00        0     13.5
    02/10/2016 03:15      0.0      290      1.5      285     56.1     57.3     55.4       31     1019     0.00        0     13.5
    02/10/2016 03:30      0.5      314      4.3      233     57.5     58.5     56.9       28     1019     0.00        0     13.5